Time;durP1;ratioP1;P1;durP2;ratioP2;P2;SDS_P1;SDS_P2;PMS_P1;PMS_P2;Temp;Humidity;BMP_temperature;BMP_pressure;BME280_temperature;BME280_humidity;BME280_pressure;Samples;Min_cycle;Max_cycle;Signal;HPM_P1;HPM_P2
2021/01/30 00:00:36;;;;;;;;;55.40;44.00;;;;;8.04;43.56;96720.50;6209483;28;125733;-63
2021/01/30 00:03:38;;;;;;;;;55.00;42.75;;;;;8.02;43.54;96715.38;6209616;28;125728;-62
2021/01/30 00:06:53;;;;;;;;;56.40;42.00;;;;;7.71;43.56;96668.78;6210707;28;126622;-62
2021/01/30 00:09:54;;;;;;;;;52.80;42.20;;;;;8.05;43.39;96743.59;6210464;28;124197;-62
2021/01/30 00:12:56;;;;;;;;;53.00;43.00;;;;;8.05;43.38;96730.19;6210612;28;126072;-62
2021/01/30 00:15:57;;;;;;;;;53.00;41.40;;;;;8.04;43.49;96732.06;6209174;28;126321;-62
2021/01/30 00:18:59;;;;;;;;;53.25;42.25;;;;;8.02;43.42;96725.31;6204587;28;125557;-62
2021/01/30 00:22:06;;;;;;;;;57.60;44.00;;;;;8.03;43.79;96729.63;6183157;28;125277;-62
2021/01/30 00:25:10;;;;;;;;;56.40;43.80;;;;;8.01;43.60;96721.03;6205336;28;126071;-63
2021/01/30 00:28:11;;;;;;;;;56.40;44.00;;;;;7.20;43.74;96597.88;6191498;28;126682;-63
2021/01/30 00:31:13;;;;;;;;;55.00;43.00;;;;;7.62;43.54;96664.97;6208794;28;126846;-62
2021/01/30 00:34:17;;;;;;;;;56.20;44.40;;;;;7.91;43.73;96715.59;6208702;28;126376;-62
2021/01/30 00:37:21;;;;;;;;;58.00;44.00;;;;;7.94;43.66;96710.50;6209381;28;126001;-62
2021/01/30 00:40:23;;;;;;;;;55.60;44.00;;;;;7.74;43.85;96678.19;6210493;28;125982;-62
2021/01/30 00:43:25;;;;;;;;;56.00;44.00;;;;;8.03;43.79;96729.63;6190746;28;127168;-63
2021/01/30 00:46:28;;;;;;;;;52.20;42.20;;;;;7.86;43.78;96694.09;6208732;28;126557;-62
2021/01/30 00:49:32;;;;;;;;;57.60;45.00;;;;;8.01;43.84;96729.09;6205021;28;124779;-62
2021/01/30 00:52:35;;;;;;;;;58.00;45.00;;;;;8.02;43.93;96746.78;6184629;28;125196;-62
2021/01/30 00:55:50;;;;;;;;;60.25;45.25;;;;;7.72;43.97;96715.19;6190775;28;125863;-62
2021/01/30 00:58:52;;;;;;;;;56.00;43.25;;;;;7.51;43.66;96684.72;6174420;28;125242;-62
2021/01/30 01:01:53;;;;;;;;;54.20;43.40;;;;;7.94;43.63;96729.28;6191225;28;126439;-62
2021/01/30 01:05:04;;;;;;;;;53.00;43.00;;;;;7.67;43.82;96704.41;6190817;28;124821;-62
2021/01/30 01:08:05;;;;;;;;;58.00;44.00;;;;;7.93;44.02;96732.22;6191351;28;125516;-63
2021/01/30 01:11:08;;;;;;;;;58.25;44.25;;;;;7.71;43.81;96703.66;6209421;28;126144;-63
2021/01/30 01:14:09;;;;;;;;;55.40;43.80;;;;;7.77;43.83;96713.34;6206905;28;124544;-62
2021/01/30 01:17:11;;;;;;;;;55.00;43.40;;;;;7.94;43.74;96733.84;6208963;28;127276;-63
2021/01/30 01:20:16;;;;;;;;;52.00;43.00;;;;;7.91;43.66;96735.19;6180129;28;128667;-62
2021/01/30 01:23:18;;;;;;;;;53.40;42.40;;;;;7.66;43.61;96686.72;6183936;28;127342;-62
2021/01/30 01:26:19;;;;;;;;;55.00;42.20;;;;;7.83;43.53;96714.19;6184570;28;127660;-62
2021/01/30 01:29:22;;;;;;;;;56.00;44.00;;;;;7.86;43.67;96731.66;6184493;28;125293;-62
2021/01/30 01:32:24;;;;;;;;;51.75;41.00;;;;;7.85;43.92;96728.16;6183083;28;126698;-61
2021/01/30 01:35:31;;;;;;;;;55.00;42.20;;;;;7.56;43.87;96682.06;6166258;28;124921;-62
2021/01/30 01:38:32;;;;;;;;;53.40;42.00;;;;;7.83;43.86;96715.00;6177842;28;124656;-62
2021/01/30 01:41:34;;;;;;;;;53.60;42.00;;;;;7.84;43.85;96724.66;6206857;28;125347;-62
2021/01/30 01:44:36;;;;;;;;;53.00;42.00;;;;;7.77;43.89;96709.88;6208305;28;126572;-62
2021/01/30 01:47:43;;;;;;;;;50.25;40.25;;;;;7.86;43.65;96728.97;6204557;28;126282;-61
2021/01/30 01:50:49;;;;;;;;;53.20;43.60;;;;;7.86;43.64;96727.09;6205608;28;127060;-62
2021/01/30 01:53:50;;;;;;;;;52.00;42.00;;;;;7.87;43.65;96723.31;6190096;28;126359;-62
2021/01/30 01:56:58;;;;;;;;;53.20;39.20;;;;;7.58;42.95;96674.56;6183544;28;126352;-63
2021/01/30 02:00:02;;;;;;;;;51.40;41.00;;;;;7.83;43.50;96720.34;6165225;28;124615;-62
2021/01/30 02:03:09;;;;;;;;;53.00;44.00;;;;;7.67;43.39;96691.00;6183444;28;124773;-62
2021/01/30 02:06:11;;;;;;;;;53.60;43.00;;;;;7.81;43.88;96711.78;6183871;28;126379;-62
2021/01/30 02:09:16;;;;;;;;;55.40;43.00;;;;;7.63;43.97;96700.59;6181031;28;127219;-63
2021/01/30 02:12:18;;;;;;;;;55.50;44.00;;;;;7.45;44.19;96674.19;6183181;28;123551;-63
2021/01/30 02:15:20;;;;;;;;;55.40;44.00;;;;;7.67;44.26;96715.16;6183988;28;126581;-62
2021/01/30 02:19:18;;;;;;;;;57.00;44.00;;;;;7.73;44.25;96698.00;6183454;28;125045;-62
2021/01/30 02:22:41;;;;;;;;;55.20;43.60;;;;;7.75;44.19;96707.44;6183604;28;127684;-62
2021/01/30 02:26:20;;;;;;;;;57.40;44.00;;;;;7.76;44.20;96692.97;6196040;28;126560;-63
2021/01/30 02:29:40;;;;;;;;;53.00;43.40;;;;;7.70;44.58;96687.81;6199275;28;126130;-63
2021/01/30 02:33:19;;;;;;;;;57.60;45.00;;;;;7.61;44.47;96679.44;6182070;28;127863;-62
2021/01/30 02:36:20;;;;;;;;;55.20;44.00;;;;;7.59;44.78;96668.16;6183112;28;124762;-63
2021/01/30 02:39:29;;;;;;;;;53.80;42.00;;;;;7.59;44.73;96659.28;6182076;28;124625;-63
2021/01/30 02:42:42;;;;;;;;;54.25;43.25;;;;;7.72;44.22;96675.75;6201248;28;126449;-62
2021/01/30 02:45:56;;;;;;;;;56.00;44.00;;;;;7.73;44.43;96666.63;6190715;28;125899;-62
2021/01/30 02:49:04;;;;;;;;;53.40;43.40;;;;;7.60;44.59;96650.19;6180744;28;126347;-62
2021/01/30 02:52:20;;;;;;;;;62.40;48.00;;;;;7.63;44.49;96650.47;6181491;28;126151;-62
2021/01/30 02:55:25;;;;;;;;;61.00;47.00;;;;;7.63;44.81;96655.03;6163464;28;124428;-62
2021/01/30 02:58:33;;;;;;;;;57.00;43.60;;;;;7.51;45.20;96652.53;6201785;28;126189;-62
2021/01/30 03:01:38;;;;;;;;;57.00;44.67;;;;;7.48;45.38;96660.31;6186057;28;126196;-63
2021/01/30 03:04:43;;;;;;;;;57.50;44.00;;;;;7.05;45.39;96599.63;6187548;28;124289;-63
2021/01/30 03:08:01;;;;;;;;;54.75;44.00;;;;;7.35;45.59;96661.50;6202033;28;123891;-63
2021/01/30 03:11:09;;;;;;;;;57.00;44.00;;;;;7.40;45.63;96648.16;6205928;28;126688;-63
2021/01/30 03:14:23;;;;;;;;;57.00;44.00;;;;;7.48;45.49;96646.91;6179786;28;124897;-62
2021/01/30 03:17:30;;;;;;;;;59.25;43.75;;;;;7.50;45.55;96650.91;6166539;28;127104;-62
2021/01/30 03:20:36;;;;;;;;;55.40;44.00;;;;;7.26;45.52;96610.25;6205753;28;123919;-62
2021/01/30 03:23:38;;;;;;;;;58.00;46.00;;;;;7.62;45.35;96643.53;6183957;28;125313;-63
2021/01/30 03:26:45;;;;;;;;;57.40;44.80;;;;;7.60;45.20;96620.69;6180089;28;127391;-62
2021/01/30 03:29:46;;;;;;;;;57.00;45.00;;;;;7.74;45.16;96638.75;6185639;28;127823;-62
2021/01/30 03:32:47;;;;;;;;;56.25;44.00;;;;;7.79;45.35;96632.63;6202786;28;126328;-62
2021/01/30 03:35:49;;;;;;;;;59.00;46.00;;;;;7.83;45.28;96626.47;6175411;28;126577;-62
2021/01/30 03:38:50;;;;;;;;;52.00;43.00;;;;;7.82;45.27;96602.59;6191400;28;126978;-62
2021/01/30 03:41:52;;;;;;;;;57.60;45.80;;;;;7.70;44.94;96597.44;6193747;28;126601;-63
2021/01/30 03:44:53;;;;;;;;;56.40;46.00;;;;;7.87;44.92;96620.63;6184715;28;126533;-62
2021/01/30 03:47:55;;;;;;;;;57.40;44.60;;;;;7.84;45.03;96617.38;6184725;28;127786;-62
2021/01/30 03:50:56;;;;;;;;;60.20;46.00;;;;;7.83;44.94;96614.94;6167387;28;127777;-62
2021/01/30 03:53:58;;;;;;;;;58.00;46.00;;;;;7.83;45.06;96614.94;6167478;28;127025;-61
2021/01/30 03:56:59;;;;;;;;;58.75;45.00;;;;;7.87;45.04;96621.41;6166624;28;126714;-62
2021/01/30 04:00:03;;;;;;;;;59.60;44.80;;;;;7.59;45.07;96552.84;6166848;28;126471;-63
2021/01/30 04:03:14;;;;;;;;;57.80;44.00;;;;;7.69;45.15;96574.38;6188044;28;125027;-63
2021/01/30 04:06:16;;;;;;;;;58.40;46.00;;;;;7.86;45.03;96594.84;6191631;28;125317;-62
2021/01/30 04:09:19;;;;;;;;;56.40;44.00;;;;;7.86;45.12;96587.63;6190024;28;126505;-62
2021/01/30 04:12:22;;;;;;;;;58.00;45.00;;;;;7.79;45.14;96601.25;6183750;28;126023;-61
2021/01/30 04:15:28;;;;;;;;;58.00;44.00;;;;;7.81;45.09;96584.91;6181753;28;125269;-62
2021/01/30 04:18:29;;;;;;;;;57.00;45.00;;;;;7.61;45.08;96558.78;6184324;28;124649;-62
2021/01/30 04:21:31;;;;;;;;;56.00;44.00;;;;;7.78;45.52;96593.44;6183896;28;125309;-62
2021/01/30 04:24:33;;;;;;;;;56.75;44.75;;;;;7.84;45.27;96587.06;6184023;28;126715;-61
2021/01/30 04:27:34;;;;;;;;;56.80;44.00;;;;;7.86;45.11;96584.13;6166252;28;124615;-62
2021/01/30 04:30:36;;;;;;;;;60.40;46.40;;;;;7.83;45.13;96585.44;6184322;28;128444;-62
2021/01/30 04:33:39;;;;;;;;;57.00;46.00;;;;;7.83;45.29;96580.88;6190362;28;126123;-62
2021/01/30 04:36:40;;;;;;;;;56.00;44.00;;;;;7.88;45.50;96571.25;6196628;28;126378;-62
2021/01/30 04:39:42;;;;;;;;;57.80;45.00;;;;;7.91;45.34;96570.75;6182658;28;126638;-62
2021/01/30 04:42:55;;;;;;;;;61.00;46.00;;;;;7.92;45.22;96558.91;6165812;28;126664;-62
2021/01/30 04:46:34;;;;;;;;;58.00;46.00;;;;;7.84;45.35;96547.63;6183941;28;124404;-63
2021/01/30 04:49:58;;;;;;;;;58.25;45.00;;;;;7.73;45.58;96545.97;6183756;28;127069;-62
2021/01/30 04:53:38;;;;;;;;;58.00;45.00;;;;;7.73;45.85;96537.91;6183996;28;127028;-61
2021/01/30 04:57:21;;;;;;;;;56.20;45.00;;;;;7.80;45.62;96535.81;6183719;28;127871;-62
2021/01/30 05:00:30;;;;;;;;;57.80;45.80;;;;;7.80;45.58;96533.13;6109424;28;125702;-62
2021/01/30 05:04:01;;;;;;;;;59.50;46.00;;;;;7.76;45.68;96537.41;6192539;28;127445;-63
2021/01/30 05:07:30;;;;;;;;;60.33;46.00;;;;;7.82;45.49;96538.22;6182586;28;126962;-63
2021/01/30 05:10:37;;;;;;;;;60.00;46.00;;;;;7.85;45.49;96540.41;6182458;28;124947;-63
2021/01/30 05:13:44;;;;;;;;;60.00;47.40;;;;;7.78;45.22;96526.41;6183927;28;124760;-62
2021/01/30 05:17:21;;;;;;;;;60.40;46.00;;;;;7.79;45.51;96534.19;6183141;28;126314;-63
2021/01/30 05:20:23;;;;;;;;;63.00;48.60;;;;;7.66;45.44;96513.22;6098860;28;124720;-62
2021/01/30 05:23:26;;;;;;;;;62.00;48.00;;;;;7.76;45.67;96533.91;6183475;28;128165;-62
2021/01/30 05:26:42;;;;;;;;;60.00;48.00;;;;;7.75;45.53;96534.97;6182736;28;125246;-62
2021/01/30 05:30:09;;;;;;;;;61.40;47.40;;;;;7.82;45.66;96535.53;6183427;28;125993;-62
2021/01/30 05:33:49;;;;;;;;;58.80;46.00;;;;;7.77;45.60;96527.50;6196069;28;124672;-62
2021/01/30 05:37:22;;;;;;;;;61.80;48.00;;;;;7.75;45.62;96538.47;6167613;28;127229;-62
2021/01/30 05:40:32;;;;;;;;;60.00;46.00;;;;;7.56;46.19;96526.56;6153780;28;125920;-63
2021/01/30 05:43:43;;;;;;;;;58.20;46.00;;;;;7.73;45.74;96521.00;6182930;28;126659;-61
2021/01/30 05:46:45;;;;;;;;;60.50;46.75;;;;;7.78;45.71;96529.09;6182744;28;126956;-62
2021/01/30 05:50:02;;;;;;;;;58.00;46.00;;;;;7.81;45.55;96524.03;6202951;28;126392;-63
2021/01/30 05:53:04;;;;;;;;;59.50;46.00;;;;;7.84;45.55;96515.44;6189334;28;125146;-62
2021/01/30 05:56:06;;;;;;;;;60.00;45.60;;;;;7.71;45.49;96499.84;6164807;28;123941;-63
2021/01/30 05:59:12;;;;;;;;;59.50;46.75;;;;;7.78;45.28;96518.34;6195533;28;124999;-62
2021/01/30 06:02:16;;;;;;;;;58.00;46.00;;;;;7.53;45.10;96456.56;6176507;28;123024;-62
2021/01/30 06:05:18;;;;;;;;;59.80;47.00;;;;;7.89;45.17;96514.66;6197227;28;124506;-62
2021/01/30 06:08:30;;;;;;;;;59.00;45.80;;;;;8.05;44.98;96528.94;6179285;28;127175;-62
2021/01/30 06:11:49;;;;;;;;;57.60;46.00;;;;;8.04;45.00;96530.00;6189483;28;124653;-63
2021/01/30 06:14:53;;;;;;;;;58.40;45.40;;;;;7.88;44.61;96525.63;6196019;28;125158;-63
2021/01/30 06:17:54;;;;;;;;;56.50;45.25;;;;;7.95;45.13;96513.63;6181816;28;124181;-62
2021/01/30 06:21:04;;;;;;;;;56.20;45.20;;;;;8.01;44.78;96511.75;6181709;28;125470;-62
2021/01/30 06:24:12;;;;;;;;;57.50;46.00;;;;;7.99;44.92;96506.66;6184525;28;124747;-62
2021/01/30 06:27:25;;;;;;;;;57.00;45.00;;;;;7.97;44.76;96508.78;6190438;28;126724;-62
2021/01/30 06:30:34;;;;;;;;;58.40;45.00;;;;;7.96;45.01;96512.56;6198061;28;126016;-63
2021/01/30 06:33:45;;;;;;;;;58.40;44.60;;;;;7.87;45.05;96508.72;6205865;28;125940;-62
2021/01/30 06:36:49;;;;;;;;;57.60;46.00;;;;;7.85;45.48;96497.47;6206866;28;125997;-62
2021/01/30 06:39:50;;;;;;;;;58.00;46.00;;;;;7.82;45.92;96485.38;6188051;28;126905;-62
2021/01/30 06:43:01;;;;;;;;;61.60;46.60;;;;;7.90;46.03;96488.66;6205851;28;125218;-63
2021/01/30 06:46:12;;;;;;;;;58.00;46.00;;;;;7.94;45.63;96490.53;6188326;28;124040;-62
2021/01/30 06:49:17;;;;;;;;;59.67;48.00;;;;;8.02;45.74;96500.75;6188680;28;127223;-62
2021/01/30 06:52:24;;;;;;;;;62.00;48.00;;;;;8.09;45.73;96498.63;6206158;28;124618;-62
2021/01/30 06:55:25;;;;;;;;;59.80;46.00;;;;;8.09;45.68;96490.59;6203145;28;125026;-62
2021/01/30 06:58:39;;;;;;;;;62.00;48.00;;;;;8.07;45.89;96482.00;6201276;28;125784;-62
2021/01/30 07:01:44;;;;;;;;;58.60;46.00;;;;;7.88;45.73;96435.25;6196520;28;126169;-62
2021/01/30 07:05:10;;;;;;;;;62.00;48.00;;;;;8.17;45.86;96476.66;6208909;28;125741;-62
2021/01/30 07:08:26;;;;;;;;;62.50;47.50;;;;;8.29;45.79;96468.38;6210040;28;126781;-62
2021/01/30 07:11:54;;;;;;;;;62.00;48.00;;;;;8.31;45.44;96471.59;6201889;28;124825;-62
2021/01/30 07:15:04;;;;;;;;;61.60;48.00;;;;;8.41;45.42;96468.13;6151878;28;124902;-62
2021/01/30 07:18:26;;;;;;;;;62.00;48.00;;;;;8.45;45.13;96466.53;6185929;28;123612;-63
2021/01/30 07:21:36;;;;;;;;;60.00;46.50;;;;;8.06;45.13;96399.09;6167734;28;125635;-62
2021/01/30 07:24:43;;;;;;;;;64.00;50.00;;;;;8.10;44.91;96384.88;6185385;28;126921;-62
2021/01/30 07:28:25;;;;;;;;;64.60;50.00;;;;;8.58;44.43;96442.66;6167213;28;124759;-63
2021/01/30 07:31:32;;;;;;;;;64.25;50.25;;;;;8.53;44.67;96431.09;6140284;28;124744;-62
2021/01/30 07:34:43;;;;;;;;;60.60;48.60;;;;;8.50;45.02;96427.06;6205942;28;126809;-62
2021/01/30 07:37:51;;;;;;;;;63.00;48.25;;;;;8.50;44.85;96437.78;6209196;28;126061;-63
2021/01/30 07:40:58;;;;;;;;;64.20;49.00;;;;;8.27;45.61;96420.31;6191889;28;124001;-62
2021/01/30 07:44:10;;;;;;;;;63.00;49.50;;;;;7.68;45.80;96309.16;6208621;28;124749;-63
2021/01/30 07:47:28;;;;;;;;;64.00;50.00;;;;;8.52;46.05;96430.28;6208099;28;126322;-62
2021/01/30 07:50:36;;;;;;;;;65.50;48.75;;;;;8.29;45.96;96379.78;6209009;28;125840;-63
2021/01/30 07:53:39;;;;;;;;;66.00;51.00;;;;;8.77;46.10;96424.09;6210066;28;125943;-62
2021/01/30 07:56:44;;;;;;;;;66.40;51.00;;;;;8.90;45.73;96422.75;6209751;28;127057;-62
2021/01/30 07:59:56;;;;;;;;;62.25;49.75;;;;;8.97;46.02;96413.34;6208913;28;126320;-64
2021/01/30 08:03:16;;;;;;;;;67.50;51.00;;;;;9.06;45.81;96403.66;6209868;28;125701;-62
2021/01/30 08:06:36;;;;;;;;;64.40;50.20;;;;;9.17;45.59;96411.69;6197241;28;127268;-63
2021/01/30 08:10:04;;;;;;;;;64.00;49.00;;;;;9.20;45.69;96400.38;6185980;28;127163;-63
2021/01/30 08:13:24;;;;;;;;;65.00;50.00;;;;;9.20;45.29;96384.25;6183393;28;124888;-62
2021/01/30 08:16:38;;;;;;;;;64.60;50.00;;;;;9.20;45.07;96385.06;6166952;28;125836;-63
2021/01/30 08:20:11;;;;;;;;;64.00;50.00;;;;;9.31;45.56;96388.53;6185670;28;127169;-63
2021/01/30 08:23:25;;;;;;;;;65.00;50.00;;;;;9.28;45.36;96367.59;6183353;28;126055;-62
2021/01/30 08:26:32;;;;;;;;;68.40;52.00;;;;;9.39;45.21;96378.00;6172392;28;124120;-63
2021/01/30 08:29:51;;;;;;;;;65.20;51.80;;;;;9.40;45.56;96379.63;6210166;28;126176;-64
2021/01/30 08:33:03;;;;;;;;;67.60;51.00;;;;;9.47;45.36;96374.75;6191998;28;126009;-61
2021/01/30 08:36:33;;;;;;;;;63.20;50.00;;;;;9.46;45.34;96375.84;6190982;28;125555;-62
2021/01/30 08:39:37;;;;;;;;;65.00;50.00;;;;;9.32;45.57;96374.81;6208408;28;126390;-63
2021/01/30 08:43:01;;;;;;;;;65.60;50.00;;;;;9.34;45.93;96366.47;6208949;28;124303;-62
2021/01/30 08:46:30;;;;;;;;;65.00;52.00;;;;;9.48;46.01;96387.09;6181924;28;126546;-62
2021/01/30 08:49:33;;;;;;;;;68.80;52.00;;;;;9.44;45.87;96371.81;6183624;28;127963;-63
2021/01/30 08:52:50;;;;;;;;;65.75;51.25;;;;;9.60;46.00;96388.69;6177739;28;126540;-62
2021/01/30 08:55:53;;;;;;;;;64.80;51.00;;;;;9.72;46.22;96389.19;6182576;28;125931;-63
2021/01/30 08:58:55;;;;;;;;;64.25;50.25;;;;;9.55;46.15;96355.34;6189584;28;124590;-63
2021/01/30 09:01:56;;;;;;;;;62.40;49.60;;;;;9.78;46.27;96380.78;6176648;28;127817;-62
2021/01/30 09:05:13;;;;;;;;;64.40;49.60;;;;;9.87;46.22;96364.88;6184841;28;126230;-63
2021/01/30 09:08:17;;;;;;;;;65.20;50.20;;;;;10.02;46.14;96379.03;6184979;28;127818;-62
2021/01/30 09:11:35;;;;;;;;;64.40;49.80;;;;;10.09;46.39;96380.59;6188713;28;127946;-62
2021/01/30 09:14:38;;;;;;;;;62.75;49.00;;;;;10.02;46.26;96378.22;6183223;28;127166;-63
2021/01/30 09:17:42;;;;;;;;;66.80;50.40;;;;;10.09;46.32;96383.28;6184256;28;124201;-63
2021/01/30 09:21:17;;;;;;;;;63.80;49.00;;;;;9.97;46.34;96354.03;6184142;28;124148;-63
2021/01/30 09:24:57;;;;;;;;;62.00;48.00;;;;;10.26;46.09;96389.16;6180726;28;124886;-62
2021/01/30 09:28:13;;;;;;;;;60.40;47.80;;;;;10.28;46.14;96368.91;6182706;28;124855;-63
2021/01/30 09:31:17;;;;;;;;;55.60;43.80;;;;;10.48;46.21;96377.94;6207843;28;124801;-62
2021/01/30 09:34:21;;;;;;;;;54.40;43.00;;;;;10.59;46.63;96374.88;6209735;28;123971;-62
2021/01/30 09:37:34;;;;;;;;;54.00;43.40;;;;;10.71;46.28;96386.06;6194502;28;125042;-63
2021/01/30 09:40:36;;;;;;;;;54.60;43.00;;;;;10.75;46.09;96370.94;6171595;28;125659;-62
2021/01/30 09:43:39;;;;;;;;;53.20;43.20;;;;;10.88;45.79;96374.88;6150529;28;125161;-62
2021/01/30 09:46:44;;;;;;;;;53.00;42.00;;;;;10.86;46.04;96366.25;6185699;28;127367;-62
2021/01/30 09:49:57;;;;;;;;;53.00;41.50;;;;;10.80;46.05;96356.63;6199379;28;124683;-62
2021/01/30 09:53:29;;;;;;;;;56.60;45.00;;;;;10.89;45.78;96376.50;6208422;28;125985;-62
2021/01/30 09:56:36;;;;;;;;;52.25;41.00;;;;;10.52;46.70;96325.91;6208167;28;126966;-62
2021/01/30 09:59:38;;;;;;;;;49.60;38.60;;;;;10.98;46.73;96363.19;6206347;28;127165;-62
2021/01/30 10:02:40;;;;;;;;;47.00;39.00;;;;;11.16;46.78;96365.94;6199679;28;127303;-63
2021/01/30 10:05:42;;;;;;;;;45.25;36.75;;;;;11.34;46.74;96363.63;6207368;28;125721;-63
2021/01/30 10:08:45;;;;;;;;;47.00;39.00;;;;;11.45;46.44;96367.78;6206641;28;126464;-63
2021/01/30 10:11:50;;;;;;;;;53.25;42.00;;;;;11.56;46.11;96363.88;6199769;28;126837;-61
2021/01/30 10:14:58;;;;;;;;;51.40;41.00;;;;;11.61;46.20;96366.50;6173467;28;123951;-62
2021/01/30 10:18:15;;;;;;;;;49.00;40.00;;;;;11.59;46.24;96371.38;6181191;28;124706;-62
2021/01/30 10:21:41;;;;;;;;;48.60;38.80;;;;;11.33;46.57;96362.81;6198546;28;125713;-63
2021/01/30 10:24:43;;;;;;;;;47.60;38.00;;;;;11.13;46.61;96341.47;6182975;28;126056;-62
2021/01/30 10:27:46;;;;;;;;;49.00;39.00;;;;;11.47;46.72;96381.78;6207505;28;125253;-62
2021/01/30 10:30:47;;;;;;;;;49.00;38.25;;;;;11.39;46.86;96372.44;6229139;28;126486;-62
2021/01/30 10:33:55;;;;;;;;;44.00;35.20;;;;;11.44;46.55;96388.56;6188513;28;129279;-62
2021/01/30 10:37:03;;;;;;;;;44.00;34.00;;;;;11.07;47.13;96312.94;6189387;28;122735;-62
2021/01/30 10:40:11;;;;;;;;;38.00;32.80;;;;;11.49;47.18;96383.09;6210211;28;125730;-62
2021/01/30 10:43:25;;;;;;;;;32.00;27.00;;;;;11.39;47.77;96383.22;6192188;28;126778;-63
2021/01/30 10:46:29;;;;;;;;;28.40;26.00;;;;;11.45;47.94;96402.84;6192495;28;124954;-62
2021/01/30 10:49:36;;;;;;;;;19.20;17.20;;;;;11.42;48.56;96411.53;6206107;28;128026;-62
2021/01/30 10:52:37;;;;;;;;;15.40;14.60;;;;;11.48;48.45;96418.47;6153768;28;127208;-62
2021/01/30 10:55:39;;;;;;;;;16.00;13.40;;;;;11.35;48.83;96440.72;6188140;28;126376;-61
2021/01/30 10:58:42;;;;;;;;;15.60;14.00;;;;;11.19;48.53;96427.38;6175805;28;125166;-62
2021/01/30 11:01:43;;;;;;;;;18.00;16.00;;;;;11.28;48.72;96449.97;6210038;28;127207;-62
2021/01/30 11:05:23;;;;;;;;;14.00;13.00;;;;;11.18;47.18;96455.47;6198420;28;124704;-62
2021/01/30 11:08:31;;;;;;;;;14.00;13.00;;;;;11.12;46.45;96447.69;6196399;28;126908;-62
2021/01/30 11:11:33;;;;;;;;;16.00;13.00;;;;;10.88;45.21;96428.78;6219260;28;127184;-62
2021/01/30 11:14:35;;;;;;;;;16.00;14.00;;;;;11.11;44.24;96456.88;6161380;28;125375;-61
2021/01/30 11:17:37;;;;;;;;;18.20;14.80;;;;;10.91;44.02;96457.84;6194593;28;127726;-62
2021/01/30 11:20:47;;;;;;;;;22.60;20.60;;;;;10.76;44.55;96501.91;6212592;28;125844;-62
2021/01/30 11:23:49;;;;;;;;;28.67;23.00;;;;;10.61;44.98;96520.03;6211912;28;126164;-61
2021/01/30 11:26:50;;;;;;;;;25.00;23.00;;;;;10.39;45.63;96542.81;6211846;28;124570;-61
2021/01/30 11:29:52;;;;;;;;;34.60;29.00;;;;;10.13;46.35;96576.28;6212363;28;126486;-62
2021/01/30 11:33:00;;;;;;;;;36.20;30.80;;;;;9.97;46.58;96567.44;6209415;28;128078;-61
2021/01/30 11:36:04;;;;;;;;;44.00;34.00;;;;;9.77;46.88;96577.47;6188658;28;124940;-62
2021/01/30 11:39:06;;;;;;;;;47.75;38.50;;;;;9.23;46.93;96555.75;6195680;28;126351;-62
2021/01/30 11:42:07;;;;;;;;;49.20;39.20;;;;;9.49;46.42;96608.44;6210943;28;126585;-62
2021/01/30 11:45:10;;;;;;;;;51.00;40.50;;;;;9.21;46.29;96585.59;6211159;28;125425;-62
2021/01/30 11:48:12;;;;;;;;;54.00;42.00;;;;;9.25;46.31;96618.13;6211115;28;126361;-62
2021/01/30 11:51:28;;;;;;;;;53.25;43.25;;;;;8.84;46.26;96569.72;6211506;28;126123;-62
2021/01/30 11:54:30;;;;;;;;;56.00;44.00;;;;;9.07;45.87;96633.69;6211335;28;125866;-62
2021/01/30 11:57:32;;;;;;;;;55.40;44.00;;;;;9.04;46.35;96671.84;6209866;28;124950;-62
2021/01/30 12:00:33;;;;;;;;;55.00;44.00;;;;;9.05;44.85;96680.72;6208508;28;127221;-62
2021/01/30 12:03:36;;;;;;;;;57.20;46.00;;;;;8.86;44.67;96688.47;6206927;28;126788;-62
2021/01/30 12:06:38;;;;;;;;;56.40;44.40;;;;;8.61;44.30;96697.22;6198230;28;125523;-62
2021/01/30 12:09:46;;;;;;;;;56.00;44.00;;;;;8.60;44.12;96717.09;6184861;28;125830;-63
2021/01/30 12:12:48;;;;;;;;;57.00;44.00;;;;;8.35;44.13;96687.47;6185583;28;124901;-63
2021/01/30 12:15:49;;;;;;;;;55.00;43.00;;;;;8.59;44.13;96761.16;6185387;28;125346;-62
2021/01/30 12:18:51;;;;;;;;;53.00;42.00;;;;;8.37;43.31;96752.41;6190782;28;127464;-63
2021/01/30 12:21:53;;;;;;;;;51.60;42.00;;;;;8.41;43.13;96760.75;6198415;28;124262;-62
2021/01/30 12:24:54;;;;;;;;;53.00;42.00;;;;;8.35;43.22;96796.72;6207409;28;126589;-63
2021/01/30 12:27:58;;;;;;;;;52.00;42.00;;;;;8.09;43.08;96793.81;6208075;28;125344;-62
2021/01/30 12:31:01;;;;;;;;;51.00;41.00;;;;;7.77;42.87;96760.81;6208791;28;125406;-62
2021/01/30 12:34:02;;;;;;;;;49.00;39.00;;;;;7.77;42.82;96748.19;6191562;28;126597;-62
2021/01/30 12:37:05;;;;;;;;;49.40;40.00;;;;;8.03;42.94;96810.91;6207312;28;124857;-62
2021/01/30 12:40:12;;;;;;;;;48.33;37.67;;;;;7.88;42.54;96775.09;6206309;28;124885;-62
2021/01/30 12:43:16;;;;;;;;;45.40;36.40;;;;;7.97;41.77;96795.84;6208450;28;126362;-62
2021/01/30 12:46:18;;;;;;;;;44.75;34.75;;;;;8.06;41.87;96831.88;6209487;28;126177;-62
2021/01/30 12:49:20;;;;;;;;;40.40;33.20;;;;;7.98;40.99;96847.63;6206423;28;124927;-62
2021/01/30 12:52:21;;;;;;;;;33.75;30.75;;;;;7.95;41.15;96862.38;6186589;28;126425;-63
2021/01/30 12:55:23;;;;;;;;;40.00;33.00;;;;;7.96;41.20;96868.56;6193025;28;125419;-62
2021/01/30 12:58:28;;;;;;;;;31.00;27.00;;;;;7.88;40.54;96883.22;6206179;28;126160;-62
2021/01/30 13:01:31;;;;;;;;;33.00;29.20;;;;;7.41;41.05;96832.06;6191278;28;127695;-62
2021/01/30 13:04:38;;;;;;;;;29.00;27.00;;;;;7.86;40.78;96900.66;6209921;28;124423;-62
2021/01/30 13:07:42;;;;;;;;;28.60;27.00;;;;;8.00;40.90;96924.13;6208358;28;124666;-62
2021/01/30 13:10:44;;;;;;;;;26.00;24.00;;;;;7.86;40.06;96944.38;6209082;28;125318;-62
2021/01/30 13:13:45;;;;;;;;;25.00;22.00;;;;;7.79;39.87;96944.56;6207127;28;125510;-62
2021/01/30 13:16:46;;;;;;;;;24.50;22.50;;;;;7.70;40.15;96961.34;6207005;28;128637;-62
2021/01/30 13:20:00;;;;;;;;;28.60;23.00;;;;;7.35;40.29;96932.22;6217570;28;96321;-62
2021/01/30 13:23:08;;;;;;;;;22.00;20.60;;;;;7.53;40.15;96949.84;6204636;27;125810;-62
2021/01/30 13:26:09;;;;;;;;;23.33;21.00;;;;;7.45;40.55;96975.25;6204074;28;124797;-63
2021/01/30 13:29:12;;;;;;;;;28.00;23.00;;;;;7.63;40.80;96974.94;6205120;28;126440;-62
2021/01/30 13:32:16;;;;;;;;;26.60;23.40;;;;;7.39;40.90;96944.88;6202022;27;124159;-62
2021/01/30 13:35:21;;;;;;;;;28.75;25.00;;;;;7.67;40.68;96972.59;6205410;28;125050;-62
2021/01/30 13:38:22;;;;;;;;;25.75;24.00;;;;;7.55;40.52;96969.19;6201848;28;125719;-62
2021/01/30 13:41:24;;;;;;;;;29.00;25.00;;;;;7.72;40.55;96978.00;6203684;28;126300;-62
2021/01/30 13:44:31;;;;;;;;;31.25;27.00;;;;;7.79;40.33;96992.03;6203787;28;124978;-62
2021/01/30 13:47:33;;;;;;;;;33.25;27.50;;;;;7.62;39.72;96986.75;6188756;28;127106;-62
2021/01/30 13:50:34;;;;;;;;;25.75;25.75;;;;;7.51;39.85;96955.50;6179882;28;127191;-62
2021/01/30 13:53:36;;;;;;;;;34.50;25.75;;;;;7.84;39.91;97000.13;6182269;28;127283;-62
2021/01/30 13:56:42;;;;;;;;;31.20;26.80;;;;;7.77;39.54;97008.38;6193622;28;126047;-62
2021/01/30 13:59:44;;;;;;;;;29.40;26.40;;;;;7.76;39.60;97011.31;6181262;28;124831;-61
2021/01/30 14:02:45;;;;;;;;;27.00;26.00;;;;;7.27;39.66;96952.25;6180660;28;126914;-63
2021/01/30 14:05:47;;;;;;;;;30.00;26.00;;;;;7.64;39.75;97019.47;6194982;28;125427;-62
2021/01/30 14:08:48;;;;;;;;;29.40;25.00;;;;;7.61;39.64;97027.22;6160926;28;125473;-63
2021/01/30 14:11:50;;;;;;;;;28.00;27.00;;;;;7.71;39.68;97036.19;6186602;28;124733;-62
2021/01/30 14:14:51;;;;;;;;;25.00;23.00;;;;;7.68;39.59;97035.88;6201624;28;125089;-63
2021/01/30 14:17:54;;;;;;;;;27.60;26.00;;;;;7.60;39.91;97025.56;6196756;28;126225;-63
2021/01/30 14:20:56;;;;;;;;;32.00;25.00;;;;;7.70;39.97;97052.53;6170258;28;128356;-62
2021/01/30 14:23:57;;;;;;;;;27.40;24.40;;;;;7.72;40.03;97045.84;6199419;28;123991;-62